Lanai Airport Lanai City US
ICAO: PHNY
IATA:
Category: Medium
Scheduled Services:

Elevation: 1308 ft
TransAlt. 0 ft.

Airport Communications:
ASOS:118.375
HONOLULU CNTR:119.3
CTAF:122.9
RDO:117.7

PHNY Zoom In..

Runways:

(A) RW 03 length 5001 ft width 150 ft
ILS 111.10 / hdg 33

(B) RW 21 length 5001 ft width 150 ft
---- / hdg 213

Location; PHNY
Day. 21 / Time. 23.56 Zulu
* Altimeter: 29.98
* Temperature: 23° c. 73.4°f.
* Wind from: 030° Speed 18 kn with Gusts up to 22 kn.
Dewpoint: 18° c.
Visibility: 10 Statute Miles.
Clouds: Scattered 2400 ft.
Clouds: Broken 3500 ft.

PHNY 212356Z AUTO 03018G22KT 10SM SCT024 BKN035 23/18 A2998 RMK AO2 SLP134 60000 T02330183 10250 20200 56030


Wind From 030°
Speed 18 kn.

jpsM music video
CHECK IT OUT

jpsM - It Moves..

 
jpsmedia.com for Web Design  worldairports.se 2018   terms of use